Airfield :
LOGIN :

Register | Disclaimer

   EN    FR    IT 

 










Legend :    VFR   Marginal VFR   IFR   Intensive IFR   Very Intensive IFR
Visi :
Ceiling :
>= 8 km
>= 3000ft
5 to 8 km
1000 to 3000 ft
1500m to 5 km
500 to 1000 ft
800 to 1500m
200 to 500 ft
< 800m
< 200 ft
Symbols :   Thunderstorms  Fog  Heavy snow  Heavy precipitations  Wind > 20 kt
SIGMETs :     Misc.  Thunderstorms  Icing  Turbulence  Mountain Waves  Volcanic Ashes







- Airport Elevation : 2265 ft
- IATA code : CZL


DABC - Mohamed Boudiaf Int. Constantine

CURRENT METAR :
  • 160830Z 32006KT 270V010 CAVOK 24/15 Q1019

EXPIRED METARs :
  • 160800Z 31005KT CAVOK 23/15 Q1020
  • 160730Z 06003KT 330V140 CAVOK 24/14 Q1019
  • 160700Z VRB02KT CAVOK 21/14 Q1019
  • 160630Z VRB02KT CAVOK 20/15 Q1019
  • 160600Z 04003KT CAVOK 19/15 Q1019

TAF TAF DABC
Valid from the 16 at 06:00 until the 17 at 06:00 UTC


160500Z 1606/1706 30008KT 8000 FEW030
BECMG 1610/1612 03012KT
TEMPO 1614/1624 FEW026TCU
PROB40
TEMPO 1615/1624 5000 RA FEW020CB
BECMG 1622/1624 VRB02KT
No reported NOTAMs for that airfield.



MET'MAP, your aeronautical weather chart ! - Copyright ORBIFLY December 2007 - Disclaimer

ORBIFLY MET'MAP TEAM :

Programming & Development : Alexandra Zaïnal
Concept & Development : Baudouin d'Aumeries
Co-Development & Prog : Marc-Olivier Méhu
Technical & hardware support : Manuel Goepfert

Contact : metmap@orbifly.com




SOURCES & CREDITS :

   NOAA